Accord, New York
Current Conditions -  °F | °C
As of 5:54 PM on Friday 31 Oct 2014 (Local Time) from KMGJ Reporting Station
Overcast Overcast  
Wind Chill: 50°   Ceiling: 7000
Heat Index: 50°   Visibility: 10mi
Dew Point: 35°   Wind: 5mph
Humidity: 57%   Direction: 70°ENE
Pressure: 29.91"   Gusts: NA
Location:  41.79°N, 74.23°W
Report Text: KMGJ 312154Z AUTO 07004KT 10SM OVC070 10/02 A2991 RMK AO2 SLP130 T01000017 TSNO
Loading
Personal Weather Stations






























Interactive Weather Map New forecast layout! Learn more

10-Day Weather Forecast

Advertisements
Track Severe Weather on mobile